createdAt,value
2022-11-06T00:02:00.869Z,94943.44
2022-11-06T00:04:31.528Z,94929.41
2022-11-06T00:06:58.955Z,94942.94
2022-11-06T00:09:26.445Z,94951.13
2022-11-06T00:11:53.932Z,94961.72
2022-11-06T00:14:21.357Z,94958.19
2022-11-06T00:16:49.223Z,94947.41
2022-11-06T00:19:18.787Z,94948.75
2022-11-06T00:21:46.367Z,94959.63
2022-11-06T00:24:14.879Z,94966.19
2022-11-06T00:26:42.785Z,94965.94
2022-11-06T00:29:13.880Z,94960.34
2022-11-06T00:31:41.539Z,94961.47
2022-11-06T00:34:10.726Z,94907.47
2022-11-06T00:36:38.503Z,94965.59
2022-11-06T00:39:05.990Z,94962.94
2022-11-06T00:41:33.527Z,94971.50
2022-11-06T00:44:02.258Z,94957.75
2022-11-06T00:46:30.183Z,94951.91
2022-11-06T00:48:58.132Z,94950.97
2022-11-06T00:51:31.485Z,94956.38
2022-11-06T00:54:00.988Z,94968.69
2022-11-06T00:56:29.771Z,94961.19
2022-11-06T00:58:59.883Z,94957.19
2022-11-06T01:01:30.410Z,94974.09
2022-11-06T01:04:03.538Z,94973.41
2022-11-06T01:06:33.512Z,94942.56
2022-11-06T01:09:01.405Z,94958.97
2022-11-06T01:11:46.595Z,94964.72
2022-11-06T01:14:19.718Z,94967.19
2022-11-06T01:16:47.626Z,94973.28
2022-11-06T01:19:16.455Z,94963.91
2022-11-06T01:21:46.684Z,94975.25
2022-11-06T01:24:17.403Z,94978.44
2022-11-06T01:26:58.816Z,94959.41
2022-11-06T01:29:32.760Z,94985.22
2022-11-06T01:32:00.190Z,94975.31
2022-11-06T01:34:27.700Z,94978.13
2022-11-06T01:36:55.090Z,94962.53
2022-11-06T01:39:22.478Z,94986.81
2022-11-06T01:41:51.694Z,94999.69
2022-11-06T01:44:40.843Z,94997.44
2022-11-06T01:47:26.177Z,94997.44
2022-11-06T01:49:58.873Z,94990.97
2022-11-06T01:52:27.391Z,94978.88
2022-11-06T01:54:58.619Z,94991.59
2022-11-06T01:57:26.012Z,95000.72
2022-11-06T01:59:54.441Z,94994.72
2022-11-06T02:02:22.010Z,94988.41
2022-11-06T02:04:49.920Z,94995.41
2022-11-06T02:07:18.928Z,95011.31
2022-11-06T02:09:46.522Z,95010.19
2022-11-06T02:12:31.403Z,94978.88
2022-11-06T02:15:14.047Z,94992.78
2022-11-06T02:17:44.076Z,95006.47
2022-11-06T02:20:55.683Z,95007.44
2022-11-06T02:23:35.160Z,95001.47
2022-11-06T02:26:13.263Z,95007.06
2022-11-06T02:28:48.105Z,94988.31
2022-11-06T02:31:18.336Z,94986.19
2022-11-06T02:33:52.378Z,94995.81
2022-11-06T02:36:23.463Z,95000.72
2022-11-06T02:38:55.378Z,95002.38
2022-11-06T02:41:26.072Z,95011.06
2022-11-06T02:43:56.414Z,94996.56
2022-11-06T02:46:39.802Z,94976.38
2022-11-06T02:49:13.587Z,95006.13
2022-11-06T02:51:45.123Z,94997.47
2022-11-06T02:54:12.713Z,95000.56
2022-11-06T02:56:43.422Z,95000.19
2022-11-06T02:59:15.522Z,95004.38
2022-11-06T03:01:47.380Z,94993.56
2022-11-06T03:05:04.525Z,95009.03
2022-11-06T03:07:38.438Z,95010.97
2022-11-06T03:10:07.099Z,95006.63
2022-11-06T03:12:57.528Z,95012.84
2022-11-06T03:15:34.510Z,94997.50
2022-11-06T03:18:13.072Z,95015.44
2022-11-06T03:20:48.114Z,95012.59
2022-11-06T03:23:29.384Z,95010.63
2022-11-06T03:26:04.811Z,95003.91
2022-11-06T03:28:39.135Z,95014.66
2022-11-06T03:31:11.995Z,95016.75
2022-11-06T03:33:45.360Z,95030.13
2022-11-06T03:36:17.157Z,94985.28
2022-11-06T03:38:48.084Z,95040.50
2022-11-06T03:41:54.489Z,95046.34
2022-11-06T03:44:24.854Z,95025.69
2022-11-06T03:47:23.122Z,95056.50
2022-11-06T03:50:20.571Z,95051.94
2022-11-06T03:53:18.598Z,95055.91
2022-11-06T03:55:50.653Z,95053.97
2022-11-06T03:58:22.352Z,95064.97
2022-11-06T04:00:51.552Z,95060.47
2022-11-06T04:03:24.446Z,95052.44
2022-11-06T04:05:55.234Z,95078.41
2022-11-06T04:08:44.110Z,95075.13
2022-11-06T04:11:34.434Z,95064.41
2022-11-06T04:14:05.422Z,95067.78
2022-11-06T04:16:41.893Z,95073.69
2022-11-06T04:19:21.934Z,95083.63
2022-11-06T04:22:16.582Z,95071.06
2022-11-06T04:25:27.432Z,95076.22
2022-11-06T04:28:24.159Z,95067.34
2022-11-06T04:31:16.745Z,95073.69
2022-11-06T04:33:58.331Z,95072.31
2022-11-06T04:36:47.187Z,95087.41
2022-11-06T04:39:17.842Z,95087.41
2022-11-06T04:42:11.136Z,95086.44
2022-11-06T04:44:44.225Z,95081.88
2022-11-06T04:47:22.016Z,95063.16
2022-11-06T04:49:51.300Z,95075.28
2022-11-06T04:52:23.255Z,95068.69
2022-11-06T04:54:51.219Z,95085.03
2022-11-06T04:57:18.620Z,95078.75
2022-11-06T04:59:46.030Z,95085.38
2022-11-06T05:02:13.541Z,95077.56
2022-11-06T05:04:41.418Z,95062.06
2022-11-06T05:07:09.662Z,95084.81
2022-11-06T05:09:37.087Z,95085.38
2022-11-06T05:12:04.699Z,95086.13
2022-11-06T05:14:32.736Z,95102.41
2022-11-06T05:17:00.470Z,95095.00
2022-11-06T05:19:27.920Z,95114.06
2022-11-06T05:22:13.887Z,95109.09
2022-11-06T05:24:41.291Z,95109.53
2022-11-06T05:27:08.722Z,95128.09
2022-11-06T05:29:36.134Z,95134.28
2022-11-06T05:32:03.795Z,95140.94
2022-11-06T05:34:31.211Z,95132.88
2022-11-06T05:36:58.628Z,95137.44
2022-11-06T05:39:26.029Z,95146.09
2022-11-06T05:41:53.514Z,95134.13
2022-11-06T05:44:21.145Z,95150.44
2022-11-06T05:46:49.909Z,95154.41
2022-11-06T05:49:18.702Z,95143.50
2022-11-06T05:51:46.369Z,95161.25
2022-11-06T05:54:14.646Z,95165.81
2022-11-06T05:56:42.072Z,95170.84
2022-11-06T05:59:09.605Z,95150.50
2022-11-06T06:01:37.149Z,95168.31
2022-11-06T06:04:04.827Z,95173.06
2022-11-06T06:06:32.680Z,95171.44
2022-11-06T06:09:00.033Z,95161.72
2022-11-06T06:11:27.487Z,95169.00
2022-11-06T06:13:54.874Z,95184.47
2022-11-06T06:16:22.314Z,95192.94
2022-11-06T06:18:53.438Z,95193.75
2022-11-06T06:21:20.834Z,95192.34
2022-11-06T06:23:48.229Z,95210.13
2022-11-06T06:26:15.678Z,95214.88
2022-11-06T06:28:43.372Z,95219.41
2022-11-06T06:31:10.955Z,95213.81
2022-11-06T06:33:38.349Z,95217.31
2022-11-06T06:36:06.532Z,95218.38
2022-11-06T06:38:34.136Z,95232.81
2022-11-06T06:41:02.844Z,95228.47
2022-11-06T06:43:30.783Z,95240.66
2022-11-06T06:46:03.244Z,95234.06
2022-11-06T06:48:30.612Z,95242.63
2022-11-06T06:51:01.850Z,95246.06
2022-11-06T06:53:29.910Z,95236.00
2022-11-06T06:56:01.853Z,95233.06
2022-11-06T06:58:30.173Z,95246.25
2022-11-06T07:01:10.368Z,95242.78
2022-11-06T07:03:38.826Z,95248.28
2022-11-06T07:06:07.185Z,95241.50
2022-11-06T07:08:34.567Z,95231.75
2022-11-06T07:11:07.631Z,95240.28
2022-11-06T07:13:36.563Z,95245.84
2022-11-06T07:16:09.758Z,95239.28
2022-11-06T07:18:38.188Z,95254.38
2022-11-06T07:21:07.852Z,95255.78
2022-11-06T07:23:36.259Z,95251.69
2022-11-06T07:26:04.579Z,95261.56
2022-11-06T07:28:32.622Z,95249.00
2022-11-06T07:40:11.018Z,95253.00
2022-11-06T07:42:43.244Z,95270.75
2022-11-06T07:45:15.328Z,95273.03
2022-11-06T07:47:43.365Z,95255.47
2022-11-06T07:50:10.783Z,95257.50
2022-11-06T07:52:38.165Z,95270.94
2022-11-06T07:55:06.174Z,95268.84
2022-11-06T07:57:37.137Z,95271.34
2022-11-06T08:00:06.392Z,95261.00
2022-11-06T08:02:40.454Z,95264.25
2022-11-06T08:05:08.548Z,95265.63
2022-11-06T08:07:36.084Z,95272.25
2022-11-06T08:10:03.896Z,95249.69
2022-11-06T08:12:31.316Z,95263.31
2022-11-06T08:14:58.743Z,95258.16
2022-11-06T08:17:27.675Z,95271.34
2022-11-06T08:19:55.092Z,95280.03
2022-11-06T08:22:22.602Z,95288.50
2022-11-06T08:24:49.971Z,95274.25
2022-11-06T08:27:17.976Z,95288.50
2022-11-06T08:29:45.936Z,95265.97
2022-11-06T08:32:13.469Z,95286.81
2022-11-06T08:34:42.341Z,95289.31
2022-11-06T08:37:10.642Z,95265.97
2022-11-06T08:39:38.442Z,95298.16
2022-11-06T08:42:07.209Z,95298.66
2022-11-06T08:44:34.821Z,95302.50
2022-11-06T08:47:02.575Z,95308.91
2022-11-06T08:49:30.559Z,95307.34
2022-11-06T08:51:58.457Z,95309.38
2022-11-06T08:54:26.514Z,95294.06
2022-11-06T08:56:54.355Z,95333.91
2022-11-06T08:59:22.091Z,95329.97
2022-11-06T09:01:49.945Z,95339.69
2022-11-06T09:04:17.749Z,95337.84
2022-11-06T09:06:45.368Z,95343.66
2022-11-06T09:09:13.011Z,95341.19
2022-11-06T09:11:41.261Z,95343.84
2022-11-06T09:14:09.082Z,95340.69
2022-11-06T09:16:36.747Z,95344.84
2022-11-06T09:19:04.363Z,95334.47
2022-11-06T09:21:32.770Z,95352.91
2022-11-06T09:24:00.329Z,95352.69
2022-11-06T09:26:27.954Z,95349.56
2022-11-06T09:28:55.576Z,95349.34
2022-11-06T09:31:23.190Z,95341.91
2022-11-06T09:33:51.329Z,95351.22
2022-11-06T09:36:18.898Z,95355.72
2022-11-06T09:38:46.468Z,95356.16
2022-11-06T09:41:52.621Z,95355.72
2022-11-06T09:44:32.869Z,95358.41
2022-11-06T09:47:05.738Z,95363.56
2022-11-06T09:49:42.199Z,95378.00
2022-11-06T09:52:34.709Z,95366.13
2022-11-06T09:55:06.376Z,95377.47
2022-11-06T09:57:42.812Z,95377.88
2022-11-06T10:00:15.880Z,95387.41
2022-11-06T10:02:53.051Z,95392.63
2022-11-06T10:05:36.210Z,95390.31
2022-11-06T10:08:10.481Z,95384.94
2022-11-06T10:10:57.400Z,95391.16
2022-11-06T10:13:31.071Z,95387.59
2022-11-06T10:16:16.277Z,95397.09
2022-11-06T10:18:50.104Z,95388.38
2022-11-06T10:21:20.548Z,95383.19
2022-11-06T10:24:00.166Z,95388.75
2022-11-06T10:26:38.601Z,95385.25
2022-11-06T10:29:28.099Z,95383.53
2022-11-06T10:32:08.536Z,95377.94
2022-11-06T10:34:52.835Z,95372.13
2022-11-06T10:37:28.558Z,95371.06
2022-11-06T10:39:57.271Z,95365.25
2022-11-06T10:42:38.274Z,95373.53
2022-11-06T10:45:11.948Z,95365.63
2022-11-06T10:47:52.252Z,95364.63
2022-11-06T10:50:20.005Z,95359.00
2022-11-06T10:52:58.814Z,95358.38
2022-11-06T10:55:26.399Z,95354.81
2022-11-06T10:58:01.106Z,95349.22
2022-11-06T11:00:28.627Z,95361.22
2022-11-06T11:02:57.410Z,95360.97
2022-11-06T11:05:26.700Z,95348.56
2022-11-06T11:07:55.200Z,95345.53
2022-11-06T11:10:28.708Z,95343.09
2022-11-06T11:13:01.679Z,95342.34
2022-11-06T11:15:33.095Z,95336.53
2022-11-06T11:18:33.997Z,95348.06
2022-11-06T11:21:25.486Z,95344.13
2022-11-06T11:24:10.604Z,95338.91
2022-11-06T11:26:43.379Z,95347.31
2022-11-06T11:29:21.597Z,95345.88
2022-11-06T11:31:57.688Z,95345.38
2022-11-06T11:34:27.807Z,95336.47
2022-11-06T11:37:08.339Z,95345.38
2022-11-06T11:39:38.083Z,95342.81
2022-11-06T11:42:23.473Z,95352.34
2022-11-06T11:45:07.207Z,95344.44
2022-11-06T11:47:35.907Z,95326.63
2022-11-06T11:50:21.906Z,95349.38
2022-11-06T11:52:51.608Z,95344.75
2022-11-06T11:55:26.674Z,95342.03
2022-11-06T11:57:56.570Z,95342.72
2022-11-06T12:00:24.207Z,95348.06
2022-11-06T12:02:59.008Z,95334.22
2022-11-06T12:05:37.192Z,95353.44
2022-11-06T12:08:04.961Z,95349.75
2022-11-06T12:10:40.251Z,95333.38
2022-11-06T12:13:16.364Z,95338.94
2022-11-06T12:15:57.571Z,95325.72
2022-11-06T12:18:36.422Z,95337.94
2022-11-06T12:21:22.142Z,95323.41
2022-11-06T12:24:30.812Z,95327.50
2022-11-06T12:27:02.408Z,95324.81
2022-11-06T12:30:10.683Z,95329.38
2022-11-06T12:33:12.243Z,95307.47
2022-11-06T12:35:48.583Z,95324.81
2022-11-06T12:38:45.183Z,95338.50
2022-11-06T12:41:17.042Z,95316.94
2022-11-06T12:43:46.957Z,95315.28
2022-11-06T12:46:37.062Z,95309.94
2022-11-06T12:49:09.179Z,95338.16
2022-11-06T12:52:14.792Z,95341.50
2022-11-06T12:54:54.113Z,95340.16
2022-11-06T12:57:48.028Z,95337.47
2022-11-06T13:00:24.116Z,95342.19
2022-11-06T13:03:13.320Z,95362.19
2022-11-06T13:05:59.654Z,95365.69
2022-11-06T13:08:39.391Z,95358.59
2022-11-06T13:11:36.595Z,95362.34
2022-11-06T13:14:26.906Z,95375.75
2022-11-06T13:17:09.199Z,95369.22
2022-11-06T13:19:45.354Z,95360.38
2022-11-06T13:22:15.847Z,95374.03
2022-11-06T13:24:57.837Z,95372.38
2022-11-06T13:27:50.376Z,95381.34
2022-11-06T13:30:19.852Z,95359.63
2022-11-06T13:33:15.149Z,95360.59
2022-11-06T13:35:43.622Z,95383.44
2022-11-06T13:38:23.680Z,95382.47
2022-11-06T13:40:54.017Z,95388.84
2022-11-06T13:43:37.522Z,95381.66
2022-11-06T13:46:25.551Z,95389.50
2022-11-06T13:49:11.533Z,95386.00
2022-11-06T13:51:54.524Z,95361.34
2022-11-06T13:54:54.381Z,95402.25
2022-11-06T13:57:46.656Z,95397.69
2022-11-06T14:00:37.612Z,95400.09
2022-11-06T14:03:28.335Z,95404.66
2022-11-06T14:06:05.726Z,95411.00
2022-11-06T14:08:35.199Z,95404.63
2022-11-06T14:11:06.120Z,95400.88
2022-11-06T14:13:35.335Z,95402.13
2022-11-06T14:16:07.659Z,95412.53
2022-11-06T14:18:35.357Z,95408.88
2022-11-06T14:21:28.275Z,95402.63
2022-11-06T14:24:05.846Z,95406.97
2022-11-06T14:26:39.026Z,95414.84
2022-11-06T14:29:42.325Z,95404.41
2022-11-06T14:32:12.059Z,95391.31
2022-11-06T14:34:41.996Z,95419.06
2022-11-06T14:37:42.192Z,95419.00
2022-11-06T14:40:13.694Z,95409.78
2022-11-06T14:42:46.348Z,95393.09
2022-11-06T14:45:21.394Z,95419.56
2022-11-06T14:47:54.405Z,95415.78
2022-11-06T14:50:25.661Z,95427.75
2022-11-06T14:52:59.619Z,95410.94
2022-11-06T14:55:33.244Z,95426.63
2022-11-06T14:58:20.811Z,95428.13
2022-11-06T15:00:52.539Z,95431.34
2022-11-06T15:03:21.392Z,95417.75
2022-11-06T15:05:52.338Z,95428.13
2022-11-06T15:08:45.126Z,95431.41
2022-11-06T15:11:31.003Z,95435.47
2022-11-06T15:14:07.787Z,95416.78
2022-11-06T15:16:50.786Z,95433.75
2022-11-06T15:19:47.500Z,95437.22
2022-11-06T15:22:28.954Z,95439.97
2022-11-06T15:25:04.066Z,95439.53
2022-11-06T15:27:38.946Z,95414.31
2022-11-06T15:30:19.702Z,95430.22
2022-11-06T15:32:48.591Z,95446.16
2022-11-06T15:35:19.437Z,95448.00
2022-11-06T15:37:50.764Z,95444.91
2022-11-06T15:40:30.494Z,95453.00
2022-11-06T15:43:01.024Z,95446.16
2022-11-06T15:45:29.446Z,95462.31
2022-11-06T15:48:02.004Z,95452.25
2022-11-06T15:50:34.061Z,95466.06
2022-11-06T15:53:14.086Z,95480.59
2022-11-06T15:55:55.377Z,95462.72
2022-11-06T15:58:31.724Z,95484.75
2022-11-06T16:01:01.134Z,95489.47
2022-11-06T16:03:31.416Z,95475.66
2022-11-06T16:06:02.055Z,95475.44
2022-11-06T16:08:31.446Z,95491.56
2022-11-06T16:10:59.227Z,95492.41
2022-11-06T16:13:27.006Z,95503.53
2022-11-06T16:15:59.041Z,95503.59
2022-11-06T16:18:32.467Z,95502.31
2022-11-06T16:21:10.156Z,95504.81
2022-11-06T16:23:46.518Z,95501.94
2022-11-06T16:26:16.242Z,95506.06
2022-11-06T16:28:45.571Z,95517.00
2022-11-06T16:31:19.287Z,95517.66
2022-11-06T16:34:01.059Z,95476.78
2022-11-06T16:36:30.609Z,95494.53
2022-11-06T16:39:40.059Z,95519.56
2022-11-06T16:42:27.831Z,95531.75
2022-11-06T16:45:31.369Z,95535.69
2022-11-06T16:48:08.045Z,95515.28
2022-11-06T16:50:50.543Z,95534.50
2022-11-06T16:53:19.383Z,95541.72
2022-11-06T16:56:07.195Z,95533.03
2022-11-06T16:58:52.050Z,95534.06
2022-11-06T17:01:21.006Z,95542.19
2022-11-06T17:03:54.556Z,95546.91
2022-11-06T17:06:30.128Z,95544.84
2022-11-06T17:09:24.226Z,95541.38
2022-11-06T17:11:56.733Z,95555.00
2022-11-06T17:14:24.980Z,95555.41
2022-11-06T17:16:53.658Z,95543.63
2022-11-06T17:19:21.588Z,95553.75
2022-11-06T17:21:50.262Z,95549.56
2022-11-06T17:24:36.121Z,95563.69
2022-11-06T17:27:05.357Z,95562.84
2022-11-06T17:29:36.374Z,95553.53
2022-11-06T17:32:04.689Z,95567.81
2022-11-06T17:34:32.189Z,95573.38
2022-11-06T17:36:59.700Z,95564.50
2022-11-06T17:39:27.164Z,95569.47
2022-11-06T17:41:54.743Z,95564.50
2022-11-06T17:44:22.479Z,95578.56
2022-11-06T17:46:50.016Z,95574.22
2022-11-06T17:49:18.678Z,95578.56
2022-11-06T17:51:50.163Z,95580.41
2022-11-06T17:54:18.881Z,95581.06
2022-11-06T17:56:46.560Z,95593.88
2022-11-06T17:59:14.431Z,95573.81
2022-11-06T18:01:42.279Z,95591.00
2022-11-06T18:04:10.050Z,95595.53
2022-11-06T18:06:37.518Z,95571.09
2022-11-06T18:09:07.482Z,95602.56
2022-11-06T18:11:35.015Z,95588.50
2022-11-06T18:14:03.174Z,95595.53
2022-11-06T18:16:32.776Z,95600.88
2022-11-06T18:19:00.925Z,95602.56
2022-11-06T18:21:28.505Z,95604.22
2022-11-06T18:23:56.027Z,95612.47
2022-11-06T18:26:23.480Z,95611.84
2022-11-06T18:28:51.150Z,95602.56
2022-11-06T18:31:19.477Z,95606.44
2022-11-06T18:33:47.651Z,95607.72
2022-11-06T18:36:16.061Z,95626.34
2022-11-06T18:38:43.673Z,95612.47
2022-11-06T18:41:14.058Z,95616.00
2022-11-06T18:43:41.551Z,95615.78
2022-11-06T18:46:36.103Z,95616.63
2022-11-06T18:49:03.727Z,95616.22
2022-11-06T18:51:35.467Z,95622.63
2022-11-06T18:54:05.080Z,95632.81
2022-11-06T18:56:33.685Z,95624.28
2022-11-06T18:59:01.122Z,95613.94
2022-11-06T19:01:29.722Z,95635.44
2022-11-06T19:03:57.364Z,95627.81
2022-11-06T19:06:24.803Z,95622.06
2022-11-06T19:08:52.372Z,95633.41
2022-11-06T19:11:19.965Z,95627.03
2022-11-06T19:13:48.637Z,95634.25
2022-11-06T19:16:19.362Z,95637.78
2022-11-06T19:21:30.390Z,95641.09
2022-11-06T19:24:05.355Z,95642.78
2022-11-06T19:26:35.726Z,95636.53
2022-11-06T19:29:05.285Z,95635.34
2022-11-06T19:31:33.254Z,95622.69
2022-11-06T19:34:02.152Z,95620.63
2022-11-06T19:36:30.282Z,95633.28
2022-11-06T19:38:58.657Z,95644.03
2022-11-06T19:41:27.035Z,95644.03
2022-11-06T19:43:54.618Z,95638.06
2022-11-06T19:46:26.022Z,95652.31
2022-11-06T19:48:57.261Z,95638.66
2022-11-06T19:51:25.902Z,95631.03
2022-11-06T19:53:54.433Z,95636.16
2022-11-06T19:56:22.289Z,95650.44
2022-11-06T19:58:50.780Z,95656.06
2022-11-06T20:01:19.556Z,95654.41
2022-11-06T20:03:47.185Z,95656.28
2022-11-06T20:06:14.980Z,95648.19
2022-11-06T20:08:42.873Z,95671.78
2022-11-06T20:11:12.759Z,95670.38
2022-11-06T20:13:41.117Z,95663.97
2022-11-06T20:16:15.061Z,95683.81
2022-11-06T20:18:42.677Z,95673.06
2022-11-06T20:21:12.014Z,95681.75
2022-11-06T20:23:39.689Z,95664.16
2022-11-06T20:26:07.283Z,95684.66
2022-11-06T20:28:35.028Z,95692.50
2022-11-06T20:31:07.415Z,95694.16
2022-11-06T20:33:35.157Z,95701.25
2022-11-06T20:36:13.318Z,95694.59
2022-11-06T20:38:41.107Z,95691.91
2022-11-06T20:41:08.566Z,95680.94
2022-11-06T20:43:36.173Z,95688.56
2022-11-06T20:46:04.100Z,95693.16
2022-11-06T20:48:32.989Z,95687.56
2022-11-06T20:51:05.351Z,95695.41
2022-11-06T20:53:32.892Z,95699.59
2022-11-06T20:56:02.535Z,95712.00
2022-11-06T20:58:30.340Z,95708.69
2022-11-06T21:01:06.387Z,95703.72
2022-11-06T21:03:34.207Z,95704.97
2022-11-06T21:06:01.879Z,95686.75
2022-11-06T21:08:32.307Z,95690.47
2022-11-06T21:11:06.011Z,95692.31
2022-11-06T21:13:34.299Z,95696.44
2022-11-06T21:16:04.765Z,95709.75
2022-11-06T21:18:35.327Z,95697.69
2022-11-06T21:21:05.936Z,95715.75
2022-11-06T21:23:34.616Z,95705.34
2022-11-06T21:26:13.920Z,95713.03
2022-11-06T21:28:43.377Z,95712.19
2022-11-06T21:31:25.870Z,95726.66
2022-11-06T21:33:56.402Z,95716.94
2022-11-06T21:36:28.671Z,95709.06
2022-11-06T21:38:59.016Z,95721.50
2022-11-06T21:41:28.482Z,95715.69
2022-11-06T21:43:56.869Z,95717.78
2022-11-06T21:46:24.726Z,95720.25
2022-11-06T21:48:52.910Z,95713.22
2022-11-06T21:51:26.643Z,95713.00
2022-11-06T21:54:13.080Z,95715.88
2022-11-06T21:56:41.615Z,95702.66
2022-11-06T21:59:11.874Z,95719.81
2022-11-06T22:01:40.285Z,95715.06
2022-11-06T22:04:08.598Z,95709.88
2022-11-06T22:06:36.173Z,95713.81
2022-11-06T22:09:03.932Z,95722.69
2022-11-06T22:11:33.318Z,95715.88
2022-11-06T22:14:04.835Z,95708.22
2022-11-06T22:16:35.491Z,95701.56
2022-11-06T22:19:03.778Z,95721.44
2022-11-06T22:21:31.242Z,95722.06
2022-11-06T22:23:58.799Z,95712.94
2022-11-06T22:26:29.810Z,95718.53
2022-11-06T22:28:59.535Z,95718.31
2022-11-06T22:31:27.834Z,95723.28
2022-11-06T22:33:55.987Z,95712.50
2022-11-06T22:36:24.128Z,95725.94
2022-11-06T22:38:52.181Z,95734.84
2022-11-06T22:41:22.201Z,95724.06
2022-11-06T22:43:50.102Z,95724.25
2022-11-06T22:46:20.951Z,95723.22
2022-11-06T22:48:49.259Z,95728.00
2022-11-06T22:51:21.743Z,95729.63
2022-11-06T22:53:50.420Z,95728.38
2022-11-06T22:56:18.727Z,95736.25
2022-11-06T22:58:46.091Z,95709.50
2022-11-06T23:01:13.914Z,95735.41
2022-11-06T23:03:41.385Z,95730.25
2022-11-06T23:06:10.051Z,95717.44
2022-11-06T23:08:42.913Z,95722.56
2022-11-06T23:11:15.197Z,95731.66
2022-11-06T23:13:43.984Z,95730.41
2022-11-06T23:16:13.904Z,95730.84
2022-11-06T23:18:41.723Z,95729.78
2022-11-06T23:21:16.988Z,95733.06
2022-11-06T23:23:45.264Z,95733.69
2022-11-06T23:26:18.459Z,95736.97
2022-11-06T23:28:46.445Z,95729.94
2022-11-06T23:31:15.176Z,95737.34
2022-11-06T23:33:43.504Z,95732.59
2022-11-06T23:36:13.675Z,95727.41
2022-11-06T23:38:41.718Z,95728.81
2022-11-06T23:41:30.749Z,95751.81
2022-11-06T23:43:58.932Z,95760.91
2022-11-06T23:46:28.845Z,95752.84
2022-11-06T23:48:56.460Z,95749.06
2022-11-06T23:51:26.777Z,95760.47
2022-11-06T23:53:54.433Z,95760.41
2022-11-06T23:56:21.846Z,95755.44
2022-11-06T23:58:49.427Z,95778.38
